Aérodrome :
LOGIN :

S'inscrire | Disclaimer

   EN    FR    IT 

 










Légende :    VFR   VFR Marginal   IFR   IFR Intensif   IFR Très Intensif
Visi : 
Plafond : 
>= 8 km
>= 3000ft
5 à 8 km
1000 à 3000 ft
1500m à 5 km
500 à 1000 ft
800 à 1500m
200 à 500 ft
< 800m
< 200 ft
Symboles :   Orages  Brouillard  Fortes neiges  Fortes précipitations  Vent > 20 kt
SIGMETs :   Divers  Orages  Givrage  Turbulence  Onde Orograph.  Cendres Volcan.







- Altitude de l'aérodrome : 240 ft
- Code IATA : VLC


LEVC - Valencia Manises

DERNIER METAR :
  • 181030Z 26003KT 200V320 9999 FEW015 SCT025 24/16 Q1013 NOSIG

METARs EXPIRÉS :
  • 181000Z VRB01KT 9999 FEW015 SCT025 23/18 Q1013 NOSIG
  • 180930Z VRB01KT 9999 FEW015 23/18 Q1013 NOSIG
  • 180900Z VRB01KT 9999 FEW015 SCT040 22/18 Q1014 NOSIG
  • 180830Z VRB02KT 9999 SCT015 SCT040 21/17 Q1014 NOSIG

TAF TAF LEVC
Valide du 18 à 06h jusqu'au 19 à 06h UTC


180500Z 1806/1906 30004KT 9999 SCT020 BKN045 TX26/1812Z TN18/1806Z
TEMPO 1811/1814 12010KT
TEMPO 1815/1906 27012KT
TEMPO 1810/1819 4000 SHRA BKN020 FEW025CB
PROB30
TEMPO 1813/1818 3000 +TSRA BKN016 SCT020CB
Pas de NOTAMs connus pour ce terrain.
3 SIGMETs publiés pour la FIR Barcelona (LECB) :
 
Orages noyés dans la masse
LECB SIGMET 5 VALID 181100/181400 LEVA
LECB BARCELONA FIR/UIR EMBD TS FCST W OF LINE N4120 E00110 - N3810 W001 TOP FL380 MOV NE NC=
Orages noyés dans la masse
LECB SIGMET 4 VALID 181000/181100 LEVA
LECB BARCELONA FIR/UIR EMBD TS OBS AT 0946Z WI N40 W00010 - N4020 W00050 - N4120 E00030 - N4110 E00110 - N40 W00010 TOP FL340 STNR NC=
Orages noyés dans la masse
LECB SIGMET 2 VALID 1808002/181000 LEVA
LECB BARCELONA FIR/UIR EMBD TS OBS AT 0752Z WI N4020 W00020 - N4010 E00010 - N4130 E002 - N4210 E00110 - N4020 W00020 TOP FL340 MOV NE NC=



MET'MAP, la Météo Aéronautique d'un coup d'oeil ! - Copyright ORBIFLY Décembre 2007 - Disclaimer

ORBIFLY MET'MAP TEAM :

Programmation & Développement : Alexandra Zaïnal
Conception & Développement : Baudouin d'Aumeries
Co-Programmation & Développement : Marc-Olivier Méhu
Soutien technique & logistique : Manuel Goepfert

Contact : metmap@orbifly.com




SOURCES & CREDITS :

   NOAA